• Join FlightAware (Why Join?)
  • Login
  • US Flag 
10:38PM EDT


 

Airport Tracker/Info


-or-


 

Live Flight TrackerFlight Track Log ✈ SWA1103 ✈ 01-May-2013 ✈ KMDW - KPDX

Flight Track Log - Related Links

Times and Time Zones

All times are in EDT time to prevent confusion due to time zone crossing. See the SWA1103 flight status page for this flight to view local times or setup timezone preferences in your user account.

Time Position Orientation Groundspeed Altitude Reporting Facility
EDT Latitude Longitude Course Direction KTS MPH feet Rate Location/Type
08:46PM 41.7667 -87.7833 276° West 159 183 2,100  Level Chicago TRACON
08:47PM 41.7500 -87.8500 251° West 223 257 4,400 1,800 Climbing Chicago TRACON
08:48PM 41.7561 -87.8922 281° West 236 272 5,000 2,340 Climbing Chicago Center
08:49PM 41.8161 -87.9842 311° West 274 315 8,300 3,120 Climbing Chicago Center
08:50PM 41.8722 -88.0608 315° West 293 337 11,500 2,280 Climbing Chicago Center
08:51PM 41.9050 -88.1725 292° West 323 372 13,100 2,220 Climbing Chicago Center
08:52PM 41.8484 -88.4785 276° West  Level FlightAware Approximate
08:52PM 41.9403 -88.2994 291° West 359 413 16,100  Level Chicago Center
08:53PM 41.9831 -88.4597 290° West 380 437 19,300 2,700 Climbing Chicago Center
08:54PM 42.0181 -88.5983 289° West 391 450 21,800 1,980 Climbing Chicago Center
08:55PM 42.0558 -88.7408 290° West 405 466 23,500 1,740 Climbing Chicago Center
08:56PM 42.0931 -88.8883 289° West 425 489 25,400 1,740 Climbing Chicago Center
08:57PM 42.1086 -89.0822 276° West 443 510 27,200 1,620 Climbing Chicago Center
08:58PM 42.1206 -89.2531 275° West 451 519 28,800 1,560 Climbing Chicago Center
08:59PM 42.1353 -89.4269 277° West 461 531 30,600 1,800 Climbing Chicago Center
09:00PM 42.1500 -89.5992 277° West 462 532 32,700 1,980 Climbing Chicago Center
09:01PM 42.1678 -89.7925 277° West 450 518 34,700 1,560 Climbing Chicago Center
09:02PM 42.1850 -89.9569 278° West 438 504 36,000 600 Climbing Chicago Center
09:04PM 42.2056 -90.1169 280° West 438 504 36,000  Level Chicago Center
09:05PM 42.2231 -90.2764 278° West 435 501 36,000  Level Chicago Center
09:06PM 42.2411 -90.4378 279° West 436 502 36,000 360 Level Chicago Center
09:07PM 42.2586 -90.5983 278° West 436 502 36,800 960 Climbing Chicago Center
09:08PM 42.2817 -90.7903 279° West 435 501 38,000 540 Climbing Chicago Center
09:09PM 42.2992 -90.9492 279° West 431 496 38,000  Level Chicago Center
09:10PM 42.3150 -91.1111 278° West 436 502 38,000  Level Chicago Center
09:11PM 42.3328 -91.2694 279° West 430 495 38,000  Level Chicago Center
09:12PM 42.3489 -91.4308 278° West 432 497 38,000  Level Chicago Center
09:13PM 42.3647 -91.5906 278° West 430 495 38,000  Level Chicago Center
09:14PM 42.3811 -91.7483 278° West 426 490 38,000  Level Chicago Center
09:15PM 42.4000 -91.9375 278° West 422 486 38,000  Level Chicago Center
09:16PM 42.4158 -92.0958 278° West 424 488 38,000  Level Chicago Center
09:17PM 42.4256 -92.1911 278° West 424 488 38,000  Level Minneapolis Center
09:18PM 42.4408 -92.3478 278° West 422 486 38,000  Level Minneapolis Center
09:19PM 42.4553 -92.5008 277° West 418 481 38,000  Level Minneapolis Center
09:20PM 42.4692 -92.6544 277° West 414 476 38,000  Level Minneapolis Center
09:21PM 42.4914 -92.8372 279° West 414 476 38,000  Level Minneapolis Center
09:22PM 42.5314 -92.9864 290° West 421 484 38,000  Level Minneapolis Center
09:23PM 42.5678 -93.1369 288° West 424 488 38,000  Level Minneapolis Center
09:24PM 42.6047 -93.2875 288° West 424 488 38,000  Level Minneapolis Center
09:25PM 42.6417 -93.4397 288° West 427 491 38,000  Level Minneapolis Center
09:26PM 42.6811 -93.5911 290° West 428 493 38,000  Level Minneapolis Center
09:27PM 42.7253 -93.7744 288° West 428 493 38,000  Level Minneapolis Center
09:28PM 42.7600 -93.9261 287° West 425 489 38,000  Level Minneapolis Center
09:29PM 42.7958 -94.0772 288° West 424 488 38,000  Level Minneapolis Center
09:30PM 42.8311 -94.2278 288° West 423 487 38,000  Level Minneapolis Center
09:31PM 42.8683 -94.3781 289° West 422 486 38,000  Level Minneapolis Center
09:32PM 42.9028 -94.5294 287° West 422 486 38,000  Level Minneapolis Center
09:33PM 42.9433 -94.7083 287° West 409 471 38,000  Level Minneapolis Center
09:34PM 42.9775 -94.8583 287° West 412 474 38,000  Level Minneapolis Center
09:35PM 43.0111 -95.0058 287° West 410 472 38,000  Level Minneapolis Center
09:36PM 43.0447 -95.1531 287° West 407 468 38,000  Level Minneapolis Center
09:37PM 43.0781 -95.3033 287° West 412 474 38,000  Level Minneapolis Center
09:38PM 43.1119 -95.4528 287° West 413 475 38,000  Level Minneapolis Center
09:39PM 43.1442 -95.6022 287° West 410 472 38,000  Level Minneapolis Center
09:40PM 43.1778 -95.7533 287° West 414 476 38,000  Level Minneapolis Center
09:41PM 43.2169 -95.9317 287° West 410 472 38,000  Level Minneapolis Center
09:42PM 43.2494 -96.0836 286° West 413 475 38,000  Level Minneapolis Center
09:43PM 43.2825 -96.2339 287° West 412 474 38,000  Level Minneapolis Center
09:44PM 43.3136 -96.3842 286° West 410 472 38,000  Level Minneapolis Center
09:45PM 43.3458 -96.5342 287° West 409 471 38,000  Level Minneapolis Center
09:46PM 43.3781 -96.6886 286° West 414 476 38,000  Level Minneapolis Center
09:47PM 43.4100 -96.8414 286° West 416 479 38,000  Level Minneapolis Center
09:48PM 43.4411 -96.9942 286° West 416 479 38,000  Level Minneapolis Center
09:49PM 43.4725 -97.1461 286° West 414 476 38,000  Level Minneapolis Center
09:50PM 43.5031 -97.2953 286° West 407 468 38,000  Level Minneapolis Center
09:51PM 43.5392 -97.4744 286° West 405 466 38,000  Level Minneapolis Center
09:52PM 43.5697 -97.6242 286° West 406 467 38,000  Level Minneapolis Center
09:53PM 43.5997 -97.7736 286° West 404 465 38,000  Level Minneapolis Center
09:54PM 43.6292 -97.9244 285° West 406 467 38,000  Level Minneapolis Center
09:56PM 43.6581 -98.0750 285° West 407 468 38,000  Level Minneapolis Center
09:57PM 43.6883 -98.2258 286° West 407 468 38,000  Level Minneapolis Center
09:58PM 43.7172 -98.3775 285° West 407 468 38,000  Level Minneapolis Center
09:59PM 43.7458 -98.5269 285° West 406 467 38,000  Level Minneapolis Center
10:00PM 43.7769 -98.6925 285° West 400 460 38,000  Level Minneapolis Center
10:01PM 43.8053 -98.8400 285° West 398 458 38,000  Level Minneapolis Center
10:02PM 43.8328 -98.9889 284° West 398 458 38,000  Level Minneapolis Center
10:03PM 43.8603 -99.1356 285° West 395 455 38,000  Level Minneapolis Center
10:04PM 43.8869 -99.2831 284° West 394 453 38,000  Level Minneapolis Center
10:05PM 43.9147 -99.4308 285° West 395 455 38,000  Level Minneapolis Center
10:06PM 43.9422 -99.5786 285° West 395 455 38,000  Level Minneapolis Center
10:07PM 43.9683 -99.7269 284° West 395 455 38,000  Level Minneapolis Center
10:08PM 43.9936 -99.8758 283° West 395 455 38,000  Level Minneapolis Center
10:09PM 44.0203 -100.0217 284° West 392 451 38,000  Level Minneapolis Center
10:10PM 44.0464 -100.1703 284° West 394 453 38,000  Level Minneapolis Center
10:11PM 44.0714 -100.3186 283° West 394 453 38,000  Level Minneapolis Center
10:12PM 44.1031 -100.4992 284° West 397 457 38,000  Level Minneapolis Center
10:13PM 44.1292 -100.6500 284° West 399 459 38,000  Level Minneapolis Center
10:14PM 44.1547 -100.8006 283° West 400 460 38,000  Level Minneapolis Center
10:16PM 44.2053 -101.1058 283° West 402 463 38,000  Level Minneapolis Center
10:17PM 44.2308 -101.2606 283° West 405 466 38,000  Level Minneapolis Center
10:18PM 44.2561 -101.4181 283° West 409 471 38,000  Level Minneapolis Center
10:19PM 44.2819 -101.5758 283° West 412 474 38,000  Level Minneapolis Center
10:20PM 44.3097 -101.7633 282° West 415 478 38,000  Level Denver Center
10:21PM 44.3308 -101.8897 283° West 416 479 38,000  Level Denver Center
10:22PM 44.3617 -102.0797 283° West 417 480 38,000  Level Denver Center
10:23PM 44.3856 -102.2350 282° West 412 474 38,000  Level Denver Center
10:24PM 44.4106 -102.3925 283° West 413 475 38,000  Level Denver Center
10:25PM 44.4333 -102.5483 282° West 412 474 38,000  Level Denver Center
10:26PM 44.4581 -102.7044 283° West 411 473 38,000  Level Denver Center
10:27PM 44.4803 -102.8619 281° West 412 474 38,000  Level Denver Center
10:28PM 44.5042 -103.0200 282° West 413 475 38,000  Level Denver Center
10:29PM 44.5328 -103.2108 282° West 417 480 38,000  Level Denver Center
10:31PM 44.5558 -103.3711 281° West 420 483 38,000  Level Denver Center
10:32PM 44.5792 -103.5328 282° West 424 488 38,000  Level Denver Center
10:33PM 44.6061 -103.7261 281° West 432 497 38,000  Level Denver Center
10:34PM 44.6325 -103.9092 282° West 433 498 38,000  Level Denver Center
10:35PM 44.6544 -104.0672 281° West 434 499 38,000  Level Denver Center
10:36PM 44.6761 -104.2244 281° West 431 496 38,000  Level Denver Center
10:37PM 44.7017 -104.4075 281° West 428 493 38,000  Level Denver Center
10:38PM 44.7217 -104.5664 280° West 431 496 38,000  Level Denver Center
10:38PM 44.7317 -104.6403 281° West 429 494 38,000  Level Salt Lake Center
10:39PM 44.7461 -104.7453 281° West 427 491 38,000  Level Denver Center
10:40PM 44.7653 -104.9019 280° West 425 489 38,000  Level Denver Center
10:41PM 44.7903 -105.0850 281° West 426 490 38,000  Level Denver Center
10:42PM 44.8094 -105.2394 280° West 420 483 38,000  Level Denver Center
10:43PM 44.8289 -105.3969 280° West 424 488 38,000  Level Denver Center
10:44PM 44.8522 -105.5783 280° West 422 486 38,000  Level Denver Center
10:45PM 44.8717 -105.7339 280° West 422 486 38,000  Level Denver Center
10:46PM 44.8928 -105.9167 279° West 422 486 38,000  Level Denver Center
10:46PM 44.8986 -105.9672 279° West 421 484 38,000  Level Salt Lake Center
10:47PM 44.9203 -106.1481 280° West 419 482 38,000  Level Salt Lake Center
10:48PM 44.9381 -106.3025 279° West 418 481 38,000  Level Salt Lake Center
10:49PM 44.9589 -106.4842 279° West 419 482 38,000  Level Salt Lake Center
10:50PM 44.9764 -106.6408 279° West 421 484 38,000  Level Salt Lake Center
10:51PM 44.9944 -106.7967 279° West 421 484 38,000  Level Salt Lake Center
10:52PM 45.0164 -106.9828 280° West 428 493 38,000  Level Salt Lake Center
10:53PM 45.0328 -107.1419 278° West 428 493 38,000  Level Salt Lake Center
10:55PM 45.0531 -107.3278 279° West 428 493 38,000  Level Salt Lake Center
10:56PM 45.0703 -107.4831 279° West 422 486 38,000  Level Salt Lake Center
10:57PM 45.0872 -107.6394 279° West 422 486 38,000  Level Salt Lake Center
10:58PM 45.1061 -107.8231 278° West 426 490 38,000  Level Salt Lake Center
10:59PM 45.1217 -107.9811 278° West 428 493 38,000  Level Salt Lake Center
11:00PM 45.1406 -108.1658 278° West 429 494 38,000  Level Salt Lake Center
11:01PM 45.1572 -108.3267 278° West 432 497 38,000  Level Salt Lake Center
11:02PM 45.1747 -108.5136 278° West 431 496 38,000  Level Salt Lake Center
11:03PM 45.1900 -108.6717 278° West 425 489 38,000  Level Salt Lake Center
11:04PM 45.2078 -108.8561 278° West 425 489 38,000  Level Salt Lake Center
11:05PM 45.2217 -109.0153 277° West 424 488 38,000  Level Salt Lake Center
11:06PM 45.2364 -109.1722 278° West 421 484 38,000  Level Salt Lake Center
11:07PM 45.2525 -109.3528 277° West 415 478 38,000  Level Salt Lake Center
11:08PM 45.2669 -109.5081 278° West 416 479 38,000  Level Salt Lake Center
11:09PM 45.2803 -109.6631 277° West 414 476 38,000  Level Salt Lake Center
11:10PM 45.2961 -109.8431 277° West 412 474 38,000  Level Salt Lake Center
11:11PM 45.3089 -109.9983 277° West 414 476 38,000  Level Salt Lake Center
11:12PM 45.3225 -110.1792 276° West 414 476 38,000  Level Salt Lake Center
11:13PM 45.3350 -110.3333 277° West 411 473 38,000  Level Salt Lake Center
11:14PM 45.3475 -110.4889 277° West 414 476 38,000  Level Salt Lake Center
11:15PM 45.3597 -110.6514 276° West 416 479 38,000  Level Salt Lake Center
11:16PM 45.3722 -110.8156 276° West 414 476 38,000  Level Salt Lake Center
11:17PM 45.3850 -110.9792 276° West 414 476 38,000  Level Salt Lake Center
11:18PM 45.3969 -111.1428 276° West 413 475 38,000  Level Salt Lake Center
11:19PM 45.4086 -111.3081 276° West 416 479 38,000  Level Salt Lake Center
11:20PM 45.4219 -111.5067 276° West 416 479 38,000  Level Salt Lake Center
11:21PM 45.4344 -111.6706 276° West 415 478 38,000  Level Salt Lake Center
11:22PM 45.4456 -111.8347 276° West 415 478 38,000  Level Salt Lake Center
11:23PM 45.4558 -111.9961 275° West 409 471 38,000  Level Salt Lake Center
11:24PM 45.4658 -112.1553 275° West 403 464 38,000  Level Salt Lake Center
11:25PM 45.4758 -112.3147 275° West 405 466 38,000  Level Salt Lake Center
11:26PM 45.4850 -112.4764 275° West 408 470 38,000  Level Salt Lake Center
11:27PM 45.4953 -112.6369 275° West 408 470 38,000  Level Salt Lake Center
11:28PM 45.5053 -112.7978 275° West 408 470 38,000  Level Salt Lake Center
11:29PM 45.5136 -112.9528 274° West 396 456 38,000  Level Salt Lake Center
11:30PM 45.5225 -113.1069 275° West 391 450 38,000  Level Salt Lake Center
11:31PM 45.5303 -113.2597 274° West 388 447 38,000  Level Salt Lake Center
11:32PM 45.5383 -113.4100 274° West 382 440 38,000  Level Salt Lake Center
11:33PM 45.5478 -113.5956 274° West 392 451 38,000  Level Salt Lake Center
11:34PM 45.5561 -113.7314 275° West 387 445 38,000  Level Salt Lake Center
11:35PM 45.5642 -113.9031 274° West 390 449 38,000  Level Salt Lake Center
11:36PM 45.5725 -114.0494 275° West 388 447 38,000  Level Salt Lake Center
11:37PM 45.5803 -114.2194 274° West 386 444 38,000  Level Salt Lake Center
11:38PM 45.5864 -114.3667 273° West 388 447 38,000  Level Salt Lake Center
11:39PM 45.5928 -114.5167 274° West 395 455 38,000  Level Salt Lake Center
11:40PM 45.6006 -114.6906 274° West 395 455 38,000  Level Salt Lake Center
11:41PM 45.6069 -114.8431 273° West 400 460 38,000  Level Salt Lake Center
11:42PM 45.6092 -114.9925 271° West 398 458 38,000  Level Salt Lake Center
11:44PM 45.6111 -115.1642 271° West 390 449 38,000  Level Salt Lake Center
11:44PM 45.6122 -115.2656 271° West 395 455 38,000  Level Seattle Center
11:45PM 45.6142 -115.4139 271° West 392 451 38,000  Level Seattle Center
11:46PM 45.6169 -115.5858 271° West 391 450 38,000  Level Seattle Center
11:47PM 45.6183 -115.7350 271° West 392 451 38,000  Level Seattle Center
11:48PM 45.6192 -115.8844 271° West 394 453 38,000  Level Seattle Center
11:49PM 45.6192 -115.9600 270° West 397 457 38,000 -480 Level Salt Lake Center
11:50PM 45.6214 -116.1069 271° West 392 451 37,400 -600 Descending Salt Lake Center
11:50PM 45.6214 -116.2064 270° West 393 452 37,000 -240 Descending Seattle Center
11:51PM 45.6225 -116.3817 271° West 395 455 37,000  Level Seattle Center
11:52PM 45.6225 -116.5319 270° West 396 456 37,000  Level Seattle Center
11:53PM 45.6233 -116.6811 271° West 395 455 37,000  Level Seattle Center
11:54PM 45.6231 -116.8567 270° West 397 457 37,000  Level Seattle Center
11:55PM 45.6231 -117.0058 270° West 395 455 37,000  Level Seattle Center
11:56PM 45.6228 -117.1572 270° West 398 458 37,000  Level Seattle Center
11:57PM 45.6217 -117.3339 270° West 400 460 37,000  Level Seattle Center
11:58PM 45.6208 -117.4844 270° West 396 456 37,000  Level Seattle Center
11:59PM 45.6200 -117.6428 270° West 399 459 37,000  Level Seattle Center
12:00AM 45.6200 -117.7989 270° West 396 456 37,000  Level Seattle Center
12:01AM 45.6181 -117.9583 269° West 403 464 37,000  Level Seattle Center
12:02AM 45.6167 -118.1167 269° West 400 460 37,000  Level Seattle Center
12:03AM 45.6144 -118.2733 269° West 399 459 37,000  Level Seattle Center
12:04AM 45.6128 -118.4319 269° West 400 460 37,000  Level Seattle Center
12:05AM 45.6100 -118.5869 269° West 395 455 37,000  Level Seattle Center
12:06AM 45.6081 -118.7456 269° West 400 460 37,000  Level Seattle Center
12:07AM 45.6056 -118.9014 269° West 396 456 37,000  Level Seattle Center
12:09AM 45.6028 -119.0561 269° West 394 453 37,000  Level Seattle Center
12:10AM 45.6000 -119.2108 269° West 392 451 37,000  Level Seattle Center
12:11AM 45.5958 -119.3969 268° West 393 452 37,000  Level Seattle Center
12:12AM 45.5922 -119.5511 268° West 392 451 37,000  Level Seattle Center
12:13AM 45.5883 -119.7056 268° West 392 451 37,000  Level Seattle Center
12:14AM 45.5842 -119.8608 268° West 394 453 37,000 -300 Level Seattle Center
12:15AM 45.5797 -120.0142 268° West 392 451 36,400 -1,620 Descending Seattle Center
12:16AM 45.5761 -120.1664 268° West 389 448 33,800 -2,580 Descending Seattle Center
12:17AM 45.5714 -120.3186 268° West 387 445 31,300 -2,400 Descending Seattle Center
12:18AM 45.5667 -120.4803 268° West 409 471 29,000 -2,280 Descending Seattle Center
12:19AM 45.5606 -120.6428 267° West 412 474 26,700 -2,280 Descending Seattle Center
12:20AM 45.5564 -120.7981 268° West 400 460 24,500 -2,220 Descending Seattle Center
12:21AM 45.5517 -120.9469 267° West 384 442 22,300 -2,100 Descending Seattle Center
12:22AM 45.5461 -121.0928 267° West 374 430 20,300 -1,980 Descending Seattle Center
12:23AM 45.5414 -121.2319 267° West 361 415 18,400 -1,800 Descending Seattle Center
12:24AM 45.5347 -121.3972 267° West 352 405 16,700 -2,040 Descending Seattle Center
12:25AM 45.5303 -121.5333 267° West 362 417 14,500 -2,280 Descending Seattle Center
12:25AM 45.5272 -121.5906 266° West 360 414 13,700 -2,040 Descending Seattle Center
12:26AM 45.5233 -121.6792 266° West 355 409 12,300 -1,980 Descending Seattle Center
12:26AM 45.5211 -121.7261 266° West 348 400 11,700 -1,920 Descending Seattle Center
12:27AM 45.5178 -121.8142 267° West 346 398 10,400 -1,800 Descending Seattle Center
12:27AM 45.5161 -121.8581 267° West 331 381 9,900 -1,320 Descending Seattle Center
12:28AM 45.5153 -121.9400 269° West 328 377 9,100 -1,380 Descending Seattle Center
12:28AM 45.5150 -121.9883 270° West 291 335 8,500 -2,100 Descending Seattle Center
12:29AM 45.5164 -122.0600 272° West 310 357 7,000 -2,400 Descending Seattle Center
12:29AM 45.5147 -122.1028 267° West 296 341 6,100 -1,620 Descending Seattle Center
12:30AM 45.5161 -122.1778 272° West 303 349 5,400 -840 Descending Seattle Center
12:30AM 45.5139 -122.2142 265° West 266 306 5,300 -1,440 Descending Seattle Center
12:31AM 45.5147 -122.2792 271° West 271 312 4,000 -1,560 Descending Seattle Center
12:31AM 45.5128 -122.3258 267° West 256 295 3,600 -840 Descending Seattle Center
12:32AM 45.5122 -122.3778 269° West 257 296 3,200 -720 Descending Seattle Center
12:32AM 45.5211 -122.4086 292° West 221 254 3,000 -840 Descending Seattle Center
12:33AM 45.5358 -122.4481 298° West 206 237 2,400 -1,020 Descending Seattle Center
12:33AM 45.5481 -122.4778 300° West 155 178 1,900 -1,320 Descending Seattle Center
12:34AM 45.5589 -122.5058 299° West 181 208 1,100 -1,200 Descending Seattle Center
12:34AM 45.5703 -122.5336 300° West 154 177 700 -840 Descending Seattle Center
12:35AM 45.5794 -122.5567 300° West 167 192 300 -720 Descending Seattle Center